Uni-arise — 3FSV7 — position and weather

sailwx.info

Track history (hours):
 
Tides and Currents Weather Stations Pressure Air Temp Water Temp Dewpoint Dewpoint Depression Visibility Wind Speed Wind Dir Waves Ship Positions

Uni-arise

Last reported at 2014-Nov-25 21:33 UTC. Time now 2014-Nov-25 21:42 UTC.
Position N 01°15' E 104°12'.

Length 165 m; draft 7.1 m.

Type: Cargo ship. MMSI: 351608000.

Date/timePositionNaut miles runAvg speedWind from/ knotsBaromVisibWave heightAir tempDewpointWater temp
2014-Nov-25 21:33N 01°15' E 104°12'1615.6
2014-Nov-25 20:33N 01°13' E 103°56'10 9.1
2014-Nov-25 19:30N 01°14' E 103°47'2 2.0
2014-Nov-25 18:33N 01°16' E 103°47'0 0.0
2014-Nov-25 17:15N 01°16' E 103°47'0 0.0
2014-Nov-25 16:33N 01°16' E 103°47'0 0.0
2014-Nov-25 15:33N 01°16' E 103°47'0 0.0
2014-Nov-25 14:33N 01°16' E 103°47'0 0.0
2014-Nov-25 13:33N 01°16' E 103°47'0 0.0
2014-Nov-25 12:33N 01°16' E 103°47'0 0.0
2014-Nov-25 11:09N 01°16' E 103°47'0 0.0
2014-Nov-25 10:33N 01°16' E 103°47'0 0.0
2014-Nov-25 09:33N 01°16' E 103°47'0 0.0
2014-Nov-25 08:33N 01°16' E 103°47'0 0.0
2014-Nov-25 07:33N 01°16' E 103°47'0 0.4
2014-Nov-25 06:33N 01°16' E 103°47'6 5.9
2014-Nov-25 05:32N 01°13' E 103°52'5 4.7
2014-Nov-25 04:30N 01°14' E 103°57'1311.7
2014-Nov-25 03:24N 01°16' E 104°10'  
2014-Nov-20 17:33N 01°16' E 104°12'1715.0
2014-Nov-20 16:26N 01°13' E 103°56'  
2014-Nov-17 13:26N 01°11' E 103°40'1313.9
2014-Nov-17 12:31N 01°12' E 103°52'  
Track history (hours):
 
Tides and Currents Weather Stations Pressure Air Temp Water Temp Dewpoint Dewpoint Depression Visibility Wind Speed Wind Dir Waves Ship Positions

Uni-arise

Last reported at 2014-Nov-25 21:33 UTC. Time now 2014-Nov-25 21:42 UTC.
Position N 01°15' E 104°12'.

Length 165 m; draft 7.1 m.

Type: Cargo ship. MMSI: 351608000.

Date/timePositionNaut miles runAvg speedWind from/ knotsBaromVisibWave heightAir tempDewpointWater temp
2014-Nov-25 21:33N 01°15' E 104°12'1615.6
2014-Nov-25 20:33N 01°13' E 103°56'10 9.1
2014-Nov-25 19:30N 01°14' E 103°47'2 2.0
2014-Nov-25 18:33N 01°16' E 103°47'0 0.0
2014-Nov-25 17:15N 01°16' E 103°47'0 0.0
2014-Nov-25 16:33N 01°16' E 103°47'0 0.0
2014-Nov-25 15:33N 01°16' E 103°47'0 0.0
2014-Nov-25 14:33N 01°16' E 103°47'0 0.0
2014-Nov-25 13:33N 01°16' E 103°47'0 0.0
2014-Nov-25 12:33N 01°16' E 103°47'0 0.0
2014-Nov-25 11:09N 01°16' E 103°47'0 0.0
2014-Nov-25 10:33N 01°16' E 103°47'0 0.0
2014-Nov-25 09:33N 01°16' E 103°47'0 0.0
2014-Nov-25 08:33N 01°16' E 103°47'0 0.0
2014-Nov-25 07:33N 01°16' E 103°47'0 0.4
2014-Nov-25 06:33N 01°16' E 103°47'6 5.9
2014-Nov-25 05:32N 01°13' E 103°52'5 4.7
2014-Nov-25 04:30N 01°14' E 103°57'1311.7
2014-Nov-25 03:24N 01°16' E 104°10'  
2014-Nov-20 17:33N 01°16' E 104°12'1715.0
2014-Nov-20 16:26N 01°13' E 103°56'  
2014-Nov-17 13:26N 01°11' E 103°40'1313.9
2014-Nov-17 12:31N 01°12' E 103°52'  

Dump ship's entire track history